createdAt,value
2018-06-03T00:00:09.540Z,14.43
2018-06-03T00:02:37.002Z,10.70
2018-06-03T00:05:04.453Z,9.27
2018-06-03T00:07:31.922Z,12.10
2018-06-03T00:09:59.372Z,12.50
2018-06-03T00:12:26.829Z,11.57
2018-06-03T00:14:54.266Z,16.43
2018-06-03T00:17:21.713Z,11.50
2018-06-03T00:19:49.165Z,11.43
2018-06-03T00:22:35.477Z,9.90
2018-06-03T00:25:02.933Z,11.53
2018-06-03T00:27:30.386Z,9.93
2018-06-03T00:29:57.825Z,14.37
2018-06-03T00:32:25.279Z,16.43
2018-06-03T00:34:52.725Z,10.70
2018-06-03T00:37:20.249Z,11.40
2018-06-03T00:39:47.765Z,12.90
2018-06-03T00:42:15.213Z,10.43
2018-06-03T00:44:42.686Z,8.97
2018-06-03T00:47:10.120Z,15.70
2018-06-03T00:49:37.589Z,11.00
2018-06-03T00:52:05.044Z,9.80
2018-06-03T00:54:32.511Z,11.80
2018-06-03T00:57:07.920Z,11.80
2018-06-03T00:59:35.378Z,11.40
2018-06-03T01:02:02.855Z,10.10
2018-06-03T01:04:30.418Z,9.37
2018-06-03T01:06:57.897Z,9.53
2018-06-03T01:09:25.410Z,10.20
2018-06-03T01:11:52.883Z,10.73
2018-06-03T01:14:20.428Z,14.80
2018-06-03T01:16:47.886Z,12.70
2018-06-03T01:19:15.601Z,10.33
2018-06-03T01:21:43.104Z,11.43
2018-06-03T01:24:10.653Z,8.90
2018-06-03T01:26:38.122Z,11.13
2018-06-03T01:29:05.693Z,10.63
2018-06-03T01:31:33.157Z,8.40
2018-06-03T01:34:00.636Z,9.10
2018-06-03T01:36:28.069Z,9.40
2018-06-03T01:38:55.550Z,8.30
2018-06-03T01:41:23.097Z,9.40
2018-06-03T01:43:50.637Z,8.73
2018-06-03T01:46:18.087Z,12.37
2018-06-03T01:48:45.971Z,8.50
2018-06-03T01:51:13.460Z,12.73
2018-06-03T01:53:40.933Z,9.90
2018-06-03T01:56:08.490Z,10.07
2018-06-03T01:58:35.954Z,8.83
2018-06-03T02:01:03.432Z,8.07
2018-06-03T02:03:30.865Z,9.93
2018-06-03T02:05:58.304Z,12.73
2018-06-03T02:08:25.840Z,9.63
2018-06-03T02:10:53.279Z,9.60
2018-06-03T02:13:20.748Z,7.90
2018-06-03T02:15:48.212Z,11.60
2018-06-03T02:18:15.703Z,9.57
2018-06-03T02:20:43.187Z,13.13
2018-06-03T02:23:10.648Z,12.00
2018-06-03T02:25:38.144Z,9.63
2018-06-03T02:28:05.626Z,12.77
2018-06-03T02:30:33.091Z,9.73
2018-06-03T02:33:00.537Z,14.83
2018-06-03T02:35:28.063Z,15.60
2018-06-03T02:37:55.622Z,13.07
2018-06-03T02:40:23.285Z,12.60
2018-06-03T02:42:50.741Z,11.70
2018-06-03T02:45:18.189Z,13.57
2018-06-03T02:47:45.652Z,14.90
2018-06-03T02:50:13.121Z,17.10
2018-06-03T02:52:40.599Z,13.67
2018-06-03T02:55:08.068Z,11.80
2018-06-03T02:57:35.536Z,12.13
2018-06-03T03:00:03.118Z,11.03
2018-06-03T03:02:30.600Z,12.27
2018-06-03T03:04:58.545Z,12.30
2018-06-03T03:07:26.140Z,14.20
2018-06-03T03:09:53.594Z,13.83
2018-06-03T03:12:21.120Z,11.70
2018-06-03T03:14:48.585Z,11.70
2018-06-03T03:17:16.045Z,10.10
2018-06-03T03:19:43.493Z,13.20
2018-06-03T03:22:10.952Z,13.40
2018-06-03T03:24:38.413Z,15.73
2018-06-03T03:27:05.880Z,11.73
2018-06-03T03:29:33.369Z,17.33
2018-06-03T03:32:00.837Z,9.83
2018-06-03T03:34:28.326Z,11.40
2018-06-03T03:36:55.786Z,11.33
2018-06-03T03:39:23.231Z,15.33
2018-06-03T03:41:50.696Z,10.80
2018-06-03T03:44:18.168Z,13.10
2018-06-03T03:46:45.641Z,15.70
2018-06-03T03:49:13.116Z,13.00
2018-06-03T03:51:40.581Z,13.20
2018-06-03T03:54:08.034Z,11.90
2018-06-03T03:56:35.557Z,12.57
2018-06-03T03:59:03.012Z,11.07
2018-06-03T04:01:30.490Z,12.50
2018-06-03T04:03:57.942Z,10.63
2018-06-03T04:06:25.402Z,15.73
2018-06-03T04:08:52.866Z,10.40
2018-06-03T04:11:20.323Z,12.70
2018-06-03T04:13:47.773Z,23.00
2018-06-03T04:16:15.225Z,13.93
2018-06-03T04:18:42.700Z,12.30
2018-06-03T04:21:10.141Z,10.00
2018-06-03T04:23:37.619Z,12.23
2018-06-03T04:26:05.080Z,10.90
2018-06-03T04:28:32.553Z,12.10
2018-06-03T04:31:00.100Z,8.60
2018-06-03T04:33:27.590Z,11.73
2018-06-03T04:35:55.064Z,11.97
2018-06-03T04:38:22.544Z,7.90
2018-06-03T04:40:50.009Z,8.93
2018-06-03T04:43:17.583Z,7.50
2018-06-03T04:45:45.062Z,11.67
2018-06-03T04:48:12.548Z,8.10
2018-06-03T04:50:40.052Z,8.90
2018-06-03T04:53:07.489Z,9.00
2018-06-03T04:55:34.936Z,10.23
2018-06-03T04:58:02.421Z,9.97
2018-06-03T05:00:29.889Z,8.67
2018-06-03T05:02:57.369Z,8.90
2018-06-03T05:05:24.848Z,10.83
2018-06-03T05:07:52.302Z,7.73
2018-06-03T05:10:19.806Z,8.40
2018-06-03T05:12:47.258Z,11.70
2018-06-03T05:15:14.813Z,10.07
2018-06-03T05:17:42.277Z,9.10
2018-06-03T05:20:09.724Z,12.87
2018-06-03T05:22:37.183Z,8.50
2018-06-03T05:25:04.658Z,7.40
2018-06-03T05:27:32.142Z,11.53
2018-06-03T05:29:59.655Z,10.33
2018-06-03T05:32:27.220Z,8.27
2018-06-03T05:34:54.753Z,8.63
2018-06-03T05:37:22.208Z,11.50
2018-06-03T05:39:49.654Z,16.43
2018-06-03T05:42:17.122Z,9.10
2018-06-03T05:44:44.580Z,10.17
2018-06-03T05:47:12.036Z,10.47
2018-06-03T05:49:39.489Z,18.70
2018-06-03T05:52:06.974Z,15.77
2018-06-03T05:54:35.268Z,14.33
2018-06-03T05:57:02.743Z,11.70
2018-06-03T05:59:30.234Z,12.00
2018-06-03T06:01:57.729Z,13.33
2018-06-03T06:04:25.317Z,16.10
2018-06-03T06:06:52.877Z,14.87
2018-06-03T06:09:20.350Z,12.63
2018-06-03T06:11:47.843Z,18.80
2018-06-03T06:14:15.324Z,15.40
2018-06-03T06:16:43.970Z,16.57
2018-06-03T06:19:12.666Z,18.80
2018-06-03T06:21:40.178Z,15.10
2018-06-03T06:24:07.730Z,14.93
2018-06-03T06:26:35.189Z,14.53
2018-06-03T06:29:02.722Z,15.47
2018-06-03T06:31:30.190Z,14.73
2018-06-03T06:33:57.742Z,18.50
2018-06-03T06:36:25.393Z,16.50
2018-06-03T06:38:57.370Z,13.20
2018-06-03T06:41:24.843Z,14.07
2018-06-03T06:43:52.299Z,16.80
2018-06-03T06:46:19.769Z,15.27
2018-06-03T06:48:47.250Z,17.93
2018-06-03T06:51:14.751Z,19.80
2018-06-03T06:53:42.325Z,14.20
2018-06-03T06:56:09.787Z,12.40
2018-06-03T06:58:37.236Z,15.07
2018-06-03T07:01:04.684Z,17.20
2018-06-03T07:03:32.242Z,13.90
2018-06-03T07:05:59.711Z,12.53
2018-06-03T07:08:27.162Z,12.90
2018-06-03T07:10:54.612Z,12.10
2018-06-03T07:13:22.067Z,12.53
2018-06-03T07:15:49.553Z,13.67
2018-06-03T07:18:17.047Z,13.23
2018-06-03T07:20:44.538Z,10.70
2018-06-03T07:23:12.029Z,10.67
2018-06-03T07:25:39.482Z,11.67
2018-06-03T07:28:06.955Z,11.13
2018-06-03T07:30:34.418Z,9.77
2018-06-03T07:33:01.974Z,8.03
2018-06-03T07:35:29.450Z,14.03
2018-06-03T07:37:56.992Z,14.63
2018-06-03T07:40:24.454Z,11.87
2018-06-03T07:42:51.961Z,12.50
2018-06-03T07:45:19.419Z,12.33
2018-06-03T07:47:46.872Z,9.83
2018-06-03T07:50:14.330Z,8.50
2018-06-03T07:52:41.834Z,10.33
2018-06-03T07:55:09.418Z,8.37
2018-06-03T07:57:36.911Z,8.40
2018-06-03T08:00:04.373Z,19.80
2018-06-03T08:02:31.817Z,7.33
2018-06-03T08:04:59.285Z,8.17
2018-06-03T08:07:26.767Z,11.00
2018-06-03T08:09:54.352Z,7.73
2018-06-03T08:12:21.884Z,10.20
2018-06-03T08:14:49.412Z,8.33
2018-06-03T08:17:16.896Z,8.80
2018-06-03T08:19:44.368Z,6.73
2018-06-03T08:22:12.420Z,6.87
2018-06-03T08:24:39.978Z,8.17
2018-06-03T08:27:07.440Z,7.17
2018-06-03T08:29:34.913Z,9.47
2018-06-03T08:32:02.385Z,9.63
2018-06-03T08:34:29.857Z,8.10
2018-06-03T08:36:57.376Z,10.27
2018-06-03T08:39:24.839Z,9.00
2018-06-03T08:41:54.412Z,9.77
2018-06-03T08:44:21.870Z,7.70
2018-06-03T08:46:49.363Z,7.13
2018-06-03T08:49:16.887Z,6.20
2018-06-03T08:51:44.382Z,6.27
2018-06-03T08:54:11.844Z,6.50
2018-06-03T08:56:39.296Z,6.90
2018-06-03T08:59:06.858Z,6.50
2018-06-03T09:01:34.301Z,7.50
2018-06-03T09:04:01.791Z,8.37
2018-06-03T09:06:29.243Z,6.57
2018-06-03T09:08:56.758Z,6.00
2018-06-03T09:11:24.206Z,6.50
2018-06-03T09:13:51.661Z,8.37
2018-06-03T09:16:19.143Z,6.80
2018-06-03T09:18:46.668Z,6.90
2018-06-03T09:21:14.070Z,6.77
2018-06-03T09:23:41.578Z,8.83
2018-06-03T09:26:09.053Z,14.00
2018-06-03T09:28:36.514Z,4.90
2018-06-03T09:31:05.947Z,5.03
2018-06-03T09:33:33.488Z,5.27
2018-06-03T09:36:01.052Z,4.30
2018-06-03T09:38:28.538Z,7.33
2018-06-03T09:40:56.006Z,5.07
2018-06-03T09:43:23.518Z,5.47
2018-06-03T09:45:50.956Z,5.70
2018-06-03T09:48:18.416Z,10.73
2018-06-03T09:50:45.909Z,5.13
2018-06-03T09:53:23.633Z,6.63
2018-06-03T09:55:51.157Z,7.87
2018-06-03T09:58:18.630Z,4.60
2018-06-03T10:00:46.108Z,5.27
2018-06-03T10:03:14.192Z,6.17
2018-06-03T10:05:41.696Z,4.57
2018-06-03T10:08:09.158Z,6.23
2018-06-03T10:10:36.710Z,4.83
2018-06-03T10:13:04.260Z,4.27
2018-06-03T10:15:31.721Z,7.60
2018-06-03T10:17:59.280Z,5.10
2018-06-03T10:20:26.749Z,4.37
2018-06-03T10:22:54.178Z,5.07
2018-06-03T10:25:21.650Z,5.60
2018-06-03T10:27:49.101Z,8.60
2018-06-03T10:30:16.559Z,5.13
2018-06-03T10:32:44.021Z,7.57
2018-06-03T10:35:11.576Z,5.27
2018-06-03T10:37:39.036Z,3.63
2018-06-03T10:40:06.604Z,5.37
2018-06-03T10:42:34.223Z,3.53
2018-06-03T10:45:01.733Z,4.33
2018-06-03T10:47:29.289Z,4.20
2018-06-03T10:49:56.752Z,3.30
2018-06-03T10:52:24.221Z,3.30
2018-06-03T10:54:51.685Z,2.80
2018-06-03T10:57:19.151Z,6.43
2018-06-03T10:59:46.658Z,3.50
2018-06-03T11:02:14.204Z,3.60
2018-06-03T11:04:41.640Z,4.63
2018-06-03T11:07:09.096Z,5.80
2018-06-03T11:09:36.565Z,5.10
2018-06-03T11:12:04.054Z,4.23
2018-06-03T11:14:31.491Z,3.87
2018-06-03T11:16:58.952Z,5.80
2018-06-03T11:19:26.429Z,4.80
2018-06-03T11:21:53.906Z,3.53
2018-06-03T11:24:21.347Z,4.43
2018-06-03T11:26:48.882Z,5.83
2018-06-03T11:29:16.446Z,4.63
2018-06-03T11:31:43.971Z,3.20
2018-06-03T11:34:11.433Z,9.10
2018-06-03T11:36:38.899Z,6.57
2018-06-03T11:39:06.333Z,4.97
2018-06-03T11:41:33.790Z,3.33
2018-06-03T11:44:01.260Z,3.20
2018-06-03T11:46:28.715Z,3.80
2018-06-03T11:48:56.260Z,3.07
2018-06-03T11:51:23.732Z,6.90
2018-06-03T11:53:51.178Z,2.80
2018-06-03T11:56:18.621Z,2.90
2018-06-03T11:58:49.859Z,4.33
2018-06-03T12:01:17.392Z,5.13
2018-06-03T12:03:44.861Z,4.50
2018-06-03T12:06:12.408Z,6.60
2018-06-03T12:08:39.988Z,4.63
2018-06-03T12:11:07.691Z,2.87
2018-06-03T12:13:35.149Z,2.67
2018-06-03T12:16:02.608Z,4.23
2018-06-03T12:18:30.041Z,6.23
2018-06-03T12:20:57.523Z,3.73
2018-06-03T12:23:25.011Z,3.60
2018-06-03T12:25:52.568Z,4.27
2018-06-03T12:28:20.068Z,7.10
2018-06-03T12:30:47.560Z,2.50
2018-06-03T12:33:15.051Z,4.67
2018-06-03T12:35:42.503Z,5.60
2018-06-03T12:38:09.953Z,2.73
2018-06-03T12:40:37.428Z,4.20
2018-06-03T12:43:04.927Z,7.77
2018-06-03T12:45:32.383Z,4.53
2018-06-03T12:47:59.834Z,6.33
2018-06-03T12:50:27.310Z,4.60
2018-06-03T12:52:54.775Z,3.93
2018-06-03T12:55:22.397Z,3.43
2018-06-03T12:57:49.846Z,4.33
2018-06-03T13:00:17.353Z,5.80
2018-06-03T13:02:44.849Z,5.40
2018-06-03T13:05:12.472Z,3.43
2018-06-03T13:07:39.969Z,3.10
2018-06-03T13:10:07.413Z,3.90
2018-06-03T13:13:06.201Z,3.23
2018-06-03T13:15:34.486Z,3.90
2018-06-03T13:18:02.834Z,2.87
2018-06-03T13:20:31.206Z,4.23
2018-06-03T13:22:59.558Z,3.03
2018-06-03T13:25:27.879Z,2.80
2018-06-03T13:27:56.267Z,4.20
2018-06-03T13:30:24.619Z,3.50
2018-06-03T13:32:52.934Z,3.37
2018-06-03T13:35:21.258Z,2.87
2018-06-03T13:37:49.512Z,2.73
2018-06-03T13:40:17.803Z,2.60
2018-06-03T13:42:46.169Z,2.80
2018-06-03T13:45:14.610Z,3.03
2018-06-03T13:47:42.974Z,3.57
2018-06-03T13:50:11.224Z,2.10
2018-06-03T13:52:39.649Z,2.40
2018-06-03T13:55:07.966Z,3.90
2018-06-03T13:57:36.343Z,2.90
2018-06-03T14:00:05.073Z,3.17
2018-06-03T14:02:33.410Z,3.00
2018-06-03T14:05:01.748Z,3.37
2018-06-03T14:07:30.131Z,3.00
2018-06-03T14:09:58.450Z,2.10
2018-06-03T14:12:26.815Z,5.50
2018-06-03T14:14:55.347Z,2.63
2018-06-03T14:17:23.805Z,2.53
2018-06-03T14:19:52.085Z,2.67
2018-06-03T14:22:20.439Z,2.77
2018-06-03T14:24:48.899Z,3.30
2018-06-03T14:27:17.313Z,2.20
2018-06-03T14:29:45.707Z,2.37
2018-06-03T14:32:14.030Z,3.10
2018-06-03T14:34:42.386Z,2.50
2018-06-03T14:37:10.672Z,2.83
2018-06-03T14:39:39.006Z,2.13
2018-06-03T14:42:07.246Z,2.50
2018-06-03T14:44:35.554Z,2.60
2018-06-03T14:47:03.908Z,2.83
2018-06-03T14:49:32.214Z,2.67
2018-06-03T14:52:00.498Z,2.33
2018-06-03T14:54:28.907Z,2.27
2018-06-03T14:56:57.439Z,2.70
2018-06-03T14:59:25.713Z,1.73
2018-06-03T15:01:54.026Z,2.97
2018-06-03T15:04:22.366Z,2.87
2018-06-03T15:06:50.627Z,2.70
2018-06-03T15:09:19.007Z,2.07
2018-06-03T15:11:47.268Z,2.43
2018-06-03T15:14:15.587Z,2.40
2018-06-03T15:16:43.893Z,2.90
2018-06-03T15:19:12.298Z,2.60
2018-06-03T15:21:40.629Z,2.97
2018-06-03T15:24:08.937Z,2.60
2018-06-03T15:26:37.319Z,3.03
2018-06-03T15:29:05.682Z,2.07
2018-06-03T15:31:33.938Z,2.57
2018-06-03T15:34:02.294Z,1.80
2018-06-03T15:36:30.668Z,1.90
2018-06-03T15:38:59.014Z,2.50
2018-06-03T15:41:27.326Z,2.87
2018-06-03T15:43:55.711Z,2.20
2018-06-03T15:46:24.009Z,1.70
2018-06-03T15:48:52.353Z,2.23
2018-06-03T15:51:20.670Z,3.93
2018-06-03T15:53:49.015Z,2.20
2018-06-03T15:56:17.327Z,2.30
2018-06-03T15:58:45.640Z,2.40
2018-06-03T16:01:14.020Z,2.33
2018-06-03T16:03:42.277Z,2.10
2018-06-03T16:06:10.631Z,2.50
2018-06-03T16:08:38.961Z,2.50
2018-06-03T16:11:07.366Z,2.10
2018-06-03T16:13:35.764Z,2.63
2018-06-03T16:16:04.672Z,2.47
2018-06-03T16:18:33.307Z,3.90
2018-06-03T16:21:02.758Z,3.40
2018-06-03T16:23:31.193Z,2.33
2018-06-03T16:25:59.956Z,2.93
2018-06-03T16:28:28.289Z,2.27
2018-06-03T16:30:56.617Z,2.60
2018-06-03T16:33:25.020Z,2.60
2018-06-03T16:35:53.379Z,3.60
2018-06-03T16:38:21.717Z,2.53
2018-06-03T16:40:56.369Z,2.13
2018-06-03T16:43:24.952Z,2.33
2018-06-03T16:45:53.342Z,2.10
2018-06-03T16:48:21.642Z,2.03
2018-06-03T16:50:49.992Z,2.40
2018-06-03T16:53:18.357Z,5.70
2018-06-03T16:55:46.631Z,1.93
2018-06-03T16:58:15.030Z,2.03
2018-06-03T17:00:43.721Z,2.10
2018-06-03T17:03:12.062Z,2.30
2018-06-03T17:05:40.566Z,2.10
2018-06-03T17:08:08.886Z,2.43
2018-06-03T17:10:37.407Z,2.63
2018-06-03T17:13:06.089Z,2.80
2018-06-03T17:15:34.501Z,2.83
2018-06-03T17:18:02.816Z,2.00
2018-06-03T17:20:31.320Z,1.97
2018-06-03T17:22:59.595Z,2.30
2018-06-03T17:25:27.906Z,2.30
2018-06-03T17:27:56.218Z,3.73
2018-06-03T17:30:24.536Z,2.10
2018-06-03T17:32:53.014Z,2.53
2018-06-03T17:35:21.321Z,3.37
2018-06-03T17:37:49.634Z,3.40
2018-06-03T17:40:18.111Z,2.43
2018-06-03T17:42:46.542Z,2.60
2018-06-03T17:45:15.067Z,2.33
2018-06-03T17:47:45.742Z,2.67
2018-06-03T17:50:14.131Z,4.53
2018-06-03T17:52:42.549Z,4.83
2018-06-03T17:55:10.968Z,2.63
2018-06-03T17:57:39.297Z,2.40
2018-06-03T18:00:07.578Z,3.73
2018-06-03T18:02:36.423Z,4.60
2018-06-03T18:05:04.846Z,5.33
2018-06-03T18:07:33.225Z,6.10
2018-06-03T18:10:01.592Z,7.50
2018-06-03T18:12:29.983Z,3.50
2018-06-03T18:14:58.561Z,5.53
2018-06-03T18:17:26.852Z,6.43
2018-06-03T18:19:55.186Z,4.83
2018-06-03T18:22:23.649Z,5.93
2018-06-03T18:24:52.081Z,12.57
2018-06-03T18:27:20.436Z,5.87
2018-06-03T18:29:48.737Z,10.40
2018-06-03T18:32:17.141Z,3.77
2018-06-03T18:34:45.444Z,4.37
2018-06-03T18:37:13.803Z,8.63
2018-06-03T18:39:42.760Z,5.73
2018-06-03T18:42:11.104Z,7.33
2018-06-03T18:44:39.350Z,4.43
2018-06-03T18:47:07.698Z,4.30
2018-06-03T18:49:36.116Z,5.50
2018-06-03T18:52:04.396Z,5.57
2018-06-03T18:54:32.723Z,3.70
2018-06-03T18:57:01.040Z,4.30
2018-06-03T18:59:29.462Z,4.03
2018-06-03T19:01:57.796Z,7.50
2018-06-03T19:04:26.274Z,4.70
2018-06-03T19:06:54.748Z,6.40
2018-06-03T19:09:23.042Z,6.43
2018-06-03T19:11:51.598Z,4.63
2018-06-03T19:14:20.077Z,4.53
2018-06-03T19:16:48.572Z,4.83
2018-06-03T19:19:17.119Z,7.93
2018-06-03T19:21:45.544Z,10.50
2018-06-03T19:27:17.386Z,7.20
2018-06-03T19:29:45.765Z,5.10
2018-06-03T19:32:14.142Z,4.23
2018-06-03T19:34:42.592Z,6.57
2018-06-03T19:37:11.159Z,17.87
2018-06-03T19:39:39.486Z,22.43
2018-06-03T19:42:07.961Z,8.23
2018-06-03T19:44:36.444Z,24.60
2018-06-03T19:47:04.950Z,7.97
2018-06-03T19:49:33.273Z,10.13
2018-06-03T19:52:01.765Z,5.47
2018-06-03T19:54:30.167Z,7.13
2018-06-03T19:56:58.766Z,11.70
2018-06-03T19:59:27.961Z,7.67
2018-06-03T20:01:56.303Z,16.07
2018-06-03T20:04:24.803Z,12.13
2018-06-03T20:06:56.743Z,8.10
2018-06-03T20:09:25.840Z,6.33
2018-06-03T20:11:54.264Z,9.20
2018-06-03T20:14:22.618Z,4.93
2018-06-03T20:16:51.120Z,11.50
2018-06-03T20:19:19.544Z,5.10
2018-06-03T20:21:47.848Z,6.97
2018-06-03T20:24:16.451Z,6.97
2018-06-03T20:26:44.774Z,4.33
2018-06-03T20:29:13.216Z,5.23
2018-06-03T20:31:42.351Z,6.40
2018-06-03T20:34:11.042Z,8.03
2018-06-03T20:36:39.488Z,6.13
2018-06-03T20:39:08.174Z,10.63
2018-06-03T20:41:36.474Z,6.33
2018-06-03T20:44:04.955Z,4.83
2018-06-03T20:46:33.259Z,4.70
2018-06-03T20:49:01.546Z,5.83
2018-06-03T20:51:29.860Z,11.00
2018-06-03T20:53:58.253Z,9.17
2018-06-03T20:56:26.668Z,5.20
2018-06-03T20:58:55.148Z,5.30
2018-06-03T21:01:23.497Z,5.00
2018-06-03T21:03:51.981Z,7.93
2018-06-03T21:06:20.525Z,5.10
2018-06-03T21:08:48.932Z,4.10
2018-06-03T21:11:17.440Z,4.90
2018-06-03T21:13:46.468Z,8.57
2018-06-03T21:16:14.898Z,6.00
2018-06-03T21:18:43.405Z,6.70
2018-06-03T21:21:11.845Z,5.70
2018-06-03T21:23:40.640Z,6.03
2018-06-03T21:26:13.637Z,9.50
2018-06-03T21:28:44.353Z,7.17
2018-06-03T21:31:14.337Z,6.83
2018-06-03T21:33:42.898Z,6.30
2018-06-03T21:36:11.368Z,5.90
2018-06-03T21:38:39.700Z,5.60
2018-06-03T21:41:08.034Z,7.77
2018-06-03T21:43:36.483Z,5.90
2018-06-03T21:46:04.896Z,7.80
2018-06-03T21:48:33.367Z,11.80
2018-06-03T21:51:02.029Z,9.90
2018-06-03T21:53:30.502Z,6.07
2018-06-03T21:55:58.857Z,6.20
2018-06-03T21:58:27.232Z,6.73
2018-06-03T22:00:55.739Z,6.47
2018-06-03T22:03:24.168Z,5.90
2018-06-03T22:05:52.665Z,5.70
2018-06-03T22:08:21.143Z,6.53
2018-06-03T22:10:49.617Z,10.13
2018-06-03T22:13:18.109Z,9.87
2018-06-03T22:15:46.623Z,11.47
2018-06-03T22:18:15.097Z,13.37
2018-06-03T22:20:43.707Z,10.90
2018-06-03T22:23:12.181Z,9.60
2018-06-03T22:25:41.044Z,8.80
2018-06-03T22:28:09.407Z,8.50
2018-06-03T22:33:42.026Z,6.73
2018-06-03T22:36:10.347Z,9.90
2018-06-03T22:38:38.799Z,6.53
2018-06-03T22:41:07.229Z,6.80
2018-06-03T22:43:35.655Z,11.70
2018-06-03T22:46:05.116Z,7.07
2018-06-03T22:48:33.530Z,6.63
2018-06-03T22:51:01.962Z,6.43
2018-06-03T22:53:30.438Z,5.60
2018-06-03T22:56:00.267Z,8.03
2018-06-03T22:58:30.035Z,7.17
2018-06-03T23:00:58.582Z,9.80
2018-06-03T23:03:27.217Z,8.00
2018-06-03T23:05:56.038Z,8.50
2018-06-03T23:08:27.733Z,8.10
2018-06-03T23:10:57.219Z,6.27
2018-06-03T23:13:25.748Z,6.63
2018-06-03T23:15:54.779Z,5.97
2018-06-03T23:18:29.579Z,6.20
2018-06-03T23:20:58.055Z,5.80
2018-06-03T23:23:26.503Z,7.30
2018-06-03T23:25:54.978Z,6.73
2018-06-03T23:28:23.328Z,6.77
2018-06-03T23:30:51.830Z,11.20
2018-06-03T23:33:20.423Z,7.53
2018-06-03T23:35:48.752Z,5.60
2018-06-03T23:38:17.252Z,6.67
2018-06-03T23:40:45.657Z,9.83
2018-06-03T23:43:14.015Z,6.73
2018-06-03T23:45:42.404Z,7.30
2018-06-03T23:48:10.952Z,7.97
2018-06-03T23:50:39.332Z,9.80
2018-06-03T23:53:07.784Z,10.33
2018-06-03T23:55:36.105Z,7.87
2018-06-03T23:58:04.483Z,6.23
